createdAt,value
2022-08-08T00:01:17.211Z,62.49
2022-08-08T00:04:16.329Z,61.84
2022-08-08T00:07:01.369Z,62.31
2022-08-08T00:09:44.107Z,62.45
2022-08-08T00:12:23.816Z,62.25
2022-08-08T00:15:17.704Z,62.37
2022-08-08T00:18:03.190Z,62.19
2022-08-08T00:20:44.917Z,62.05
2022-08-08T00:23:42.726Z,62.33
2022-08-08T00:26:29.563Z,62.27
2022-08-08T00:29:46.298Z,62.02
2022-08-08T00:32:35.298Z,61.64
2022-08-08T00:35:18.395Z,61.51
2022-08-08T00:38:31.607Z,61.64
2022-08-08T00:41:54.992Z,61.33
2022-08-08T00:45:00.757Z,61.54
2022-08-08T00:48:29.858Z,61.36
2022-08-08T00:51:15.280Z,61.44
2022-08-08T00:54:32.866Z,60.89
2022-08-08T00:57:59.537Z,60.92
2022-08-08T01:00:57.064Z,60.92
2022-08-08T01:04:04.213Z,60.98
2022-08-08T01:07:18.874Z,61.65
2022-08-08T01:10:52.273Z,61.35
2022-08-08T01:14:03.181Z,61.01
2022-08-08T01:16:46.586Z,61.18
2022-08-08T01:20:03.234Z,61.46
2022-08-08T01:23:06.304Z,61.25
2022-08-08T01:26:11.412Z,60.86
2022-08-08T01:29:27.947Z,61.16
2022-08-08T01:32:31.827Z,61.31
2022-08-08T01:35:38.504Z,62.16
2022-08-08T01:38:33.394Z,61.52
2022-08-08T01:41:34.043Z,61.41
2022-08-08T01:44:34.397Z,61.84
2022-08-08T01:48:15.586Z,61.45
2022-08-08T01:50:50.752Z,62.13
2022-08-08T01:55:15.671Z,62.18
2022-08-08T01:57:25.645Z,62.27
2022-08-08T02:01:15.698Z,62.01
2022-08-08T02:04:20.653Z,62.54
2022-08-08T02:07:13.677Z,62.60
2022-08-08T02:10:45.185Z,63.24
2022-08-08T02:13:54.060Z,63.17
2022-08-08T02:16:38.933Z,63.56
2022-08-08T02:19:56.942Z,63.47
2022-08-08T02:22:34.422Z,63.21
2022-08-08T02:25:49.069Z,63.64
2022-08-08T02:28:42.395Z,64.05
2022-08-08T02:31:54.153Z,64.71
2022-08-08T02:35:08.392Z,64.09
2022-08-08T02:38:30.337Z,64.33
2022-08-08T02:42:03.996Z,65.39
2022-08-08T02:44:38.279Z,65.19
2022-08-08T02:48:25.859Z,65.76
2022-08-08T02:51:38.299Z,65.42
2022-08-08T02:54:40.181Z,65.78
2022-08-08T02:58:05.254Z,66.47
2022-08-08T03:01:24.772Z,66.50
2022-08-08T03:05:02.827Z,65.82
2022-08-08T03:07:58.324Z,66.11
2022-08-08T03:10:33.809Z,66.89
2022-08-08T03:15:54.119Z,66.42
2022-08-08T03:16:43.322Z,67.13
2022-08-08T03:19:27.882Z,67.03
2022-08-08T03:21:59.863Z,67.12
2022-08-08T03:24:30.589Z,67.77
2022-08-08T03:27:56.704Z,67.16
2022-08-08T03:30:26.708Z,67.27
2022-08-08T03:33:56.355Z,66.73
2022-08-08T03:36:04.229Z,66.73
2022-08-08T03:38:58.087Z,67.09
2022-08-08T03:42:12.563Z,66.69
2022-08-08T03:44:25.656Z,66.69
2022-08-08T03:46:58.677Z,66.69
2022-08-08T03:49:56.811Z,66.56
2022-08-08T03:52:16.735Z,66.76
2022-08-08T03:55:01.809Z,66.60
2022-08-08T03:58:30.676Z,66.97
2022-08-08T04:00:27.821Z,67.92
2022-08-08T04:03:11.669Z,67.15
2022-08-08T04:05:48.102Z,68.04
2022-08-08T04:08:32.904Z,68.06
2022-08-08T04:11:10.948Z,68.09
2022-08-08T04:14:32.986Z,67.88
2022-08-08T04:16:40.498Z,68.25
2022-08-08T04:19:23.077Z,68.42
2022-08-08T04:21:54.038Z,68.35
2022-08-08T04:24:28.803Z,69.18
2022-08-08T04:26:59.302Z,69.17
2022-08-08T04:29:33.311Z,68.92
2022-08-08T04:32:07.672Z,68.43
2022-08-08T04:34:55.256Z,68.69
2022-08-08T04:37:32.454Z,68.92
2022-08-08T04:40:10.537Z,69.02
2022-08-08T04:42:56.660Z,68.55
2022-08-08T04:45:46.141Z,69.01
2022-08-08T04:48:15.449Z,69.46
2022-08-08T04:50:45.979Z,69.32
2022-08-08T04:54:36.130Z,69.31
2022-08-08T04:56:12.160Z,70.16
2022-08-08T04:58:41.506Z,69.70
2022-08-08T05:01:11.452Z,69.70
2022-08-08T05:04:09.918Z,69.78
2022-08-08T05:06:39.470Z,69.17
2022-08-08T05:09:09.785Z,69.42
2022-08-08T05:11:41.897Z,69.61
2022-08-08T05:14:15.628Z,69.44
2022-08-08T05:17:00.908Z,69.55
2022-08-08T05:20:12.119Z,69.10
2022-08-08T05:22:30.141Z,69.35
2022-08-08T05:25:03.057Z,69.15
2022-08-08T05:27:33.173Z,69.66
2022-08-08T05:30:03.646Z,69.73
2022-08-08T05:32:46.888Z,69.52
2022-08-08T05:35:23.722Z,68.68
2022-08-08T05:38:30.333Z,69.40
2022-08-08T05:41:07.641Z,68.96
2022-08-08T05:44:03.138Z,69.23
2022-08-08T05:46:29.445Z,68.65
2022-08-08T05:49:22.844Z,68.85
2022-08-08T05:52:15.669Z,68.34
2022-08-08T05:55:09.975Z,68.31
2022-08-08T05:58:06.063Z,68.42
2022-08-08T06:01:06.887Z,68.39
2022-08-08T06:04:13.865Z,68.17
2022-08-08T06:07:11.895Z,68.86
2022-08-08T06:10:06.247Z,68.73
2022-08-08T06:12:55.833Z,68.87
2022-08-08T06:15:53.686Z,68.12
2022-08-08T06:19:04.023Z,67.51
2022-08-08T06:21:57.038Z,68.21
2022-08-08T06:25:00.637Z,67.64
2022-08-08T06:27:56.276Z,67.67
2022-08-08T06:30:46.532Z,67.90
2022-08-08T06:34:26.151Z,67.37
2022-08-08T06:37:24.580Z,67.03
2022-08-08T06:40:18.843Z,66.27
2022-08-08T06:43:11.457Z,66.55
2022-08-08T06:46:16.337Z,65.67
2022-08-08T06:49:07.608Z,66.47
2022-08-08T06:52:01.349Z,65.42
2022-08-08T06:54:50.588Z,65.42
2022-08-08T06:57:54.794Z,65.03
2022-08-08T07:00:50.793Z,65.04
2022-08-08T07:04:36.782Z,64.71
2022-08-08T07:07:10.490Z,65.11
2022-08-08T07:10:09.189Z,64.50
2022-08-08T07:13:11.089Z,64.36
2022-08-08T07:17:02.764Z,64.55
2022-08-08T07:20:11.253Z,64.72
2022-08-08T07:23:24.732Z,64.24
2022-08-08T07:26:21.599Z,64.28
2022-08-08T07:29:54.623Z,63.63
2022-08-08T07:32:28.415Z,62.77
2022-08-08T07:35:18.712Z,62.82
2022-08-08T07:38:20.589Z,62.52
2022-08-08T07:41:25.641Z,62.24
2022-08-08T07:44:38.186Z,62.49
2022-08-08T07:47:38.212Z,61.75
2022-08-08T07:50:29.517Z,61.24
2022-08-08T07:54:02.979Z,60.11
2022-08-08T07:57:26.308Z,61.04
2022-08-08T08:00:20.066Z,59.60
2022-08-08T08:03:53.039Z,58.80
2022-08-08T08:06:48.213Z,57.57
2022-08-08T08:09:39.686Z,59.00
2022-08-08T08:12:41.305Z,59.53
2022-08-08T08:15:33.291Z,60.12
2022-08-08T08:18:27.387Z,59.07
2022-08-08T08:21:44.841Z,58.55
2022-08-08T08:24:46.267Z,58.20
2022-08-08T08:27:36.994Z,58.70
2022-08-08T08:30:27.850Z,58.14
2022-08-08T08:33:16.722Z,57.67
2022-08-08T08:36:19.100Z,57.51
2022-08-08T08:39:17.499Z,57.62
2022-08-08T08:42:13.311Z,57.30
2022-08-08T08:45:10.207Z,56.54
2022-08-08T08:48:19.391Z,56.98
2022-08-08T08:51:16.790Z,55.58
2022-08-08T08:54:07.968Z,55.90
2022-08-08T08:56:59.221Z,56.21
2022-08-08T08:59:59.503Z,55.64
2022-08-08T09:02:54.339Z,54.96
2022-08-08T09:05:53.846Z,55.67
2022-08-08T09:08:49.783Z,55.89
2022-08-08T09:11:47.485Z,54.42
2022-08-08T09:14:45.105Z,53.15
2022-08-08T09:17:42.046Z,54.08
2022-08-08T09:22:02.794Z,55.22
2022-08-08T09:23:56.682Z,54.07
2022-08-08T09:27:09.203Z,53.49
2022-08-08T09:30:10.801Z,54.38
2022-08-08T09:33:54.181Z,53.89
2022-08-08T09:36:23.777Z,53.64
2022-08-08T09:39:21.837Z,52.71
2022-08-08T09:42:21.344Z,52.91
2022-08-08T09:45:20.588Z,53.81
2022-08-08T09:48:28.882Z,53.43
2022-08-08T09:51:30.836Z,52.95
2022-08-08T09:54:44.830Z,53.42
2022-08-08T09:57:45.954Z,52.99
2022-08-08T10:00:56.625Z,53.26
2022-08-08T10:03:56.024Z,50.98
2022-08-08T10:06:47.416Z,52.05
2022-08-08T10:09:59.907Z,53.88
2022-08-08T10:12:54.245Z,53.27
2022-08-08T10:16:01.119Z,52.68
2022-08-08T10:18:55.332Z,52.98
2022-08-08T10:21:51.232Z,53.27
2022-08-08T10:24:47.154Z,53.08
2022-08-08T10:27:43.631Z,53.40
2022-08-08T10:31:00.661Z,52.30
2022-08-08T10:34:18.997Z,53.09
2022-08-08T10:36:52.419Z,53.97
2022-08-08T10:39:53.649Z,53.26
2022-08-08T10:42:44.970Z,52.37
2022-08-08T10:45:55.937Z,53.59
2022-08-08T10:48:57.072Z,51.91
2022-08-08T10:51:51.403Z,53.23
2022-08-08T10:54:41.343Z,52.15
2022-08-08T10:57:45.199Z,53.35
2022-08-08T11:00:52.574Z,52.50
2022-08-08T11:04:00.688Z,52.89
2022-08-08T11:07:00.692Z,52.82
2022-08-08T11:09:49.328Z,51.42
2022-08-08T11:13:06.628Z,50.77
2022-08-08T11:19:10.794Z,50.04
2022-08-08T11:22:04.366Z,50.53
2022-08-08T11:28:04.362Z,49.30
2022-08-08T11:30:59.999Z,50.22
2022-08-08T11:34:01.601Z,51.64
2022-08-08T11:36:52.057Z,49.22
2022-08-08T11:39:57.211Z,51.06
2022-08-08T11:42:46.243Z,48.83
2022-08-08T11:45:59.900Z,48.30
2022-08-08T11:48:47.203Z,48.42
2022-08-08T11:51:40.039Z,48.12
2022-08-08T11:59:57.697Z,45.85
2022-08-08T12:02:52.075Z,47.84
2022-08-08T12:05:41.021Z,47.64
2022-08-08T12:08:37.910Z,46.73
2022-08-08T12:11:29.276Z,46.33
2022-08-08T12:14:29.108Z,45.82
2022-08-08T12:17:18.044Z,48.01
2022-08-08T12:20:07.361Z,47.06
2022-08-08T12:23:03.094Z,46.16
2022-08-08T12:25:52.648Z,47.85
2022-08-08T12:28:55.719Z,44.74
2022-08-08T12:31:53.471Z,45.56
2022-08-08T12:35:01.247Z,47.20
2022-08-08T12:38:08.921Z,44.93
2022-08-08T12:41:00.928Z,46.79
2022-08-08T12:44:09.235Z,49.21
2022-08-08T12:47:01.157Z,45.85
2022-08-08T12:49:55.488Z,47.70
2022-08-08T12:52:54.497Z,44.77
2022-08-08T12:56:17.530Z,44.81
2022-08-08T12:59:36.392Z,44.21
2022-08-08T13:02:37.839Z,46.49
2022-08-08T13:06:03.571Z,45.04
2022-08-08T13:08:53.524Z,46.22
2022-08-08T13:12:27.466Z,44.55
2022-08-08T13:15:06.449Z,45.87
2022-08-08T13:18:10.986Z,44.26
2022-08-08T13:21:02.360Z,43.71
2022-08-08T13:23:52.728Z,45.08
2022-08-08T13:26:44.501Z,45.88
2022-08-08T13:29:40.524Z,44.88
2022-08-08T13:32:37.105Z,44.55
2022-08-08T13:35:29.538Z,44.70
2022-08-08T13:38:28.213Z,44.12
2022-08-08T13:41:17.366Z,45.33
2022-08-08T13:44:10.783Z,44.91
2022-08-08T13:47:04.593Z,45.20
2022-08-08T13:50:35.329Z,44.68
2022-08-08T13:53:24.542Z,47.47
2022-08-08T13:56:14.338Z,43.78
2022-08-08T13:59:05.818Z,46.44
2022-08-08T14:02:01.442Z,45.98
2022-08-08T14:05:20.109Z,44.26
2022-08-08T14:08:16.827Z,43.81
2022-08-08T14:11:22.158Z,44.25
2022-08-08T14:14:11.030Z,43.68
2022-08-08T14:17:04.838Z,45.77
2022-08-08T14:20:55.767Z,44.15
2022-08-08T14:24:07.252Z,44.70
2022-08-08T14:26:47.458Z,45.55
2022-08-08T14:29:39.150Z,44.27
2022-08-08T14:32:34.784Z,45.35
2022-08-08T14:35:35.111Z,45.71
2022-08-08T14:38:52.990Z,44.33
2022-08-08T14:41:54.368Z,44.97
2022-08-08T14:44:55.590Z,44.31
2022-08-08T14:47:52.150Z,44.00
2022-08-08T14:50:40.891Z,44.86
2022-08-08T14:53:37.385Z,45.21
2022-08-08T14:56:44.183Z,43.40
2022-08-08T14:59:44.419Z,45.65
2022-08-08T15:03:01.728Z,43.55
2022-08-08T15:05:54.096Z,44.18
2022-08-08T15:08:54.704Z,43.33
2022-08-08T15:11:46.370Z,43.89
2022-08-08T15:14:41.927Z,43.69
2022-08-08T15:17:30.472Z,45.59
2022-08-08T15:20:20.742Z,45.65
2022-08-08T15:23:09.331Z,43.48
2022-08-08T15:26:03.414Z,44.30
2022-08-08T15:28:54.222Z,44.20
2022-08-08T15:32:03.579Z,43.47
2022-08-08T15:34:51.495Z,42.84
2022-08-08T15:37:40.311Z,44.67
2022-08-08T15:40:28.558Z,43.94
2022-08-08T15:43:36.322Z,44.49
2022-08-08T15:46:28.585Z,45.83
2022-08-08T15:49:24.310Z,43.81
2022-08-08T15:52:18.102Z,43.52
2022-08-08T15:55:10.192Z,43.62
2022-08-08T15:57:58.791Z,43.40
2022-08-08T16:00:50.718Z,43.79
2022-08-08T16:03:39.076Z,44.70
2022-08-08T16:06:30.901Z,44.22
2022-08-08T16:13:13.953Z,44.81
2022-08-08T16:13:21.333Z,44.56
2022-08-08T16:15:58.574Z,44.59
2022-08-08T16:18:57.752Z,43.08
2022-08-08T16:21:49.146Z,43.66
2022-08-08T16:24:42.488Z,45.24
2022-08-08T16:27:32.290Z,45.23
2022-08-08T16:30:32.555Z,44.68
2022-08-08T16:33:29.661Z,45.36
2022-08-08T16:36:33.418Z,44.44
2022-08-08T16:40:01.368Z,43.75
2022-08-08T16:42:31.436Z,43.82
2022-08-08T16:46:36.445Z,44.49
2022-08-08T16:48:36.938Z,46.30
2022-08-08T16:55:04.080Z,46.22
2022-08-08T16:55:06.464Z,44.24
2022-08-08T16:58:14.984Z,44.37
2022-08-08T17:00:52.984Z,47.19
2022-08-08T17:04:00.589Z,44.96
2022-08-08T17:06:51.196Z,47.62
2022-08-08T17:09:45.323Z,45.92
2022-08-08T17:12:41.635Z,46.18
2022-08-08T17:15:47.519Z,45.19
2022-08-08T17:18:41.317Z,47.10
2022-08-08T17:21:41.415Z,45.87
2022-08-08T17:24:31.275Z,47.97
2022-08-08T17:27:19.813Z,45.78
2022-08-08T17:30:27.234Z,46.17
2022-08-08T17:34:37.695Z,46.36
2022-08-08T17:36:31.408Z,46.89
2022-08-08T17:39:45.842Z,45.53
2022-08-08T17:42:29.482Z,46.02
2022-08-08T17:45:23.442Z,46.04
2022-08-08T17:48:14.672Z,46.10
2022-08-08T17:51:03.607Z,47.40
2022-08-08T17:53:57.660Z,45.57
2022-08-08T17:56:46.782Z,45.74
2022-08-08T17:59:36.335Z,46.95
2022-08-08T18:02:33.979Z,46.46
2022-08-08T18:05:26.106Z,46.85
2022-08-08T18:08:36.974Z,46.42
2022-08-08T18:11:25.826Z,47.16
2022-08-08T18:14:22.311Z,46.58
2022-08-08T18:17:17.191Z,46.92
2022-08-08T18:20:44.410Z,47.68
2022-08-08T18:23:15.751Z,47.28
2022-08-08T18:26:05.203Z,47.32
2022-08-08T18:28:55.504Z,47.37
2022-08-08T18:31:44.081Z,48.00
2022-08-08T18:34:37.861Z,47.42
2022-08-08T18:37:33.973Z,47.69
2022-08-08T18:40:35.162Z,48.72
2022-08-08T18:43:42.954Z,48.63
2022-08-08T18:46:54.513Z,48.89
2022-08-08T18:49:57.879Z,49.18
2022-08-08T18:52:47.376Z,48.52
2022-08-08T18:55:43.899Z,49.13
2022-08-08T18:58:32.777Z,48.66
2022-08-08T19:02:24.864Z,49.58
2022-08-08T19:04:29.858Z,49.33
2022-08-08T19:07:22.918Z,49.64
2022-08-08T19:10:15.545Z,49.75
2022-08-08T19:13:05.320Z,50.40
2022-08-08T19:16:18.531Z,51.68
2022-08-08T19:19:13.955Z,51.04
2022-08-08T19:22:03.360Z,51.70
2022-08-08T19:26:00.934Z,52.07
2022-08-08T19:28:01.689Z,52.21
2022-08-08T19:31:04.173Z,52.25
2022-08-08T19:34:05.096Z,51.99
2022-08-08T19:37:06.046Z,51.93
2022-08-08T19:39:54.626Z,53.03
2022-08-08T19:42:44.188Z,53.21
2022-08-08T19:45:58.659Z,53.51
2022-08-08T19:48:41.856Z,53.01
2022-08-08T19:51:34.028Z,53.11
2022-08-08T19:54:23.209Z,52.83
2022-08-08T19:57:14.216Z,54.08
2022-08-08T20:00:11.338Z,53.60
2022-08-08T20:04:02.599Z,54.14
2022-08-08T20:06:26.965Z,55.20
2022-08-08T20:09:17.223Z,55.19
2022-08-08T20:12:11.004Z,54.17
2022-08-08T20:15:14.222Z,54.80
2022-08-08T20:18:15.481Z,54.82
2022-08-08T20:21:04.420Z,55.01
2022-08-08T20:23:57.419Z,55.21
2022-08-08T20:26:47.263Z,55.38
2022-08-08T20:29:55.828Z,55.89
2022-08-08T20:32:46.726Z,56.02
2022-08-08T20:35:59.583Z,55.81
2022-08-08T20:38:44.136Z,56.05
2022-08-08T20:41:33.830Z,56.13
2022-08-08T20:44:25.190Z,56.16
2022-08-08T20:47:22.643Z,56.14
2022-08-08T20:50:11.856Z,56.44
2022-08-08T20:53:03.771Z,56.51
2022-08-08T20:55:55.278Z,56.76
2022-08-08T20:58:50.758Z,57.57
2022-08-08T21:02:05.426Z,57.49
2022-08-08T21:04:50.254Z,57.26
2022-08-08T21:08:33.652Z,57.79
2022-08-08T21:10:47.773Z,57.50
2022-08-08T21:13:40.904Z,58.57
2022-08-08T21:16:29.641Z,57.26
2022-08-08T21:19:18.062Z,57.57
2022-08-08T21:22:06.163Z,58.31
2022-08-08T21:24:55.477Z,57.81
2022-08-08T21:28:09.818Z,57.82
2022-08-08T21:30:55.086Z,58.70
2022-08-08T21:33:43.990Z,58.57
2022-08-08T21:36:32.492Z,59.09
2022-08-08T21:39:24.009Z,58.54
2022-08-08T21:42:30.170Z,59.32
2022-08-08T21:45:44.487Z,58.79
2022-08-08T21:48:35.199Z,59.27
2022-08-08T21:54:31.088Z,59.38
2022-08-08T21:55:01.551Z,59.63
2022-08-08T21:58:04.222Z,59.78
2022-08-08T22:00:54.863Z,60.28
2022-08-08T22:03:43.630Z,60.76
2022-08-08T22:06:39.615Z,60.39
2022-08-08T22:09:37.512Z,60.42
2022-08-08T22:12:29.809Z,61.08
2022-08-08T22:15:18.640Z,60.58
2022-08-08T22:18:12.452Z,61.12
2022-08-08T22:21:11.071Z,61.09
2022-08-08T22:24:04.220Z,61.44
2022-08-08T22:27:01.735Z,61.26
2022-08-08T22:29:58.805Z,61.57
2022-08-08T22:32:51.851Z,61.81
2022-08-08T22:36:05.126Z,62.04
2022-08-08T22:38:52.996Z,61.99
2022-08-08T22:41:41.344Z,61.90
2022-08-08T22:44:29.845Z,62.17
2022-08-08T22:47:21.414Z,62.37
2022-08-08T22:50:25.474Z,62.23
2022-08-08T22:54:29.513Z,62.22
2022-08-08T22:56:24.536Z,62.71
2022-08-08T22:59:18.605Z,62.56
2022-08-08T23:02:12.949Z,62.94
2022-08-08T23:05:04.911Z,62.72
2022-08-08T23:07:57.434Z,62.83
2022-08-08T23:10:53.012Z,62.79
2022-08-08T23:13:53.777Z,62.84
2022-08-08T23:16:54.928Z,62.94
2022-08-08T23:19:48.761Z,63.15
2022-08-08T23:22:37.447Z,63.35
2022-08-08T23:25:28.256Z,64.03
2022-08-08T23:28:18.721Z,63.86
2022-08-08T23:31:07.287Z,63.54
2022-08-08T23:34:16.415Z,63.69
2022-08-08T23:37:04.685Z,63.72
2022-08-08T23:39:55.341Z,64.03
2022-08-08T23:42:46.415Z,63.86
2022-08-08T23:49:04.183Z,64.13
2022-08-08T23:49:07.772Z,64.44
2022-08-08T23:52:06.287Z,64.34
2022-08-08T23:55:07.300Z,63.67
2022-08-08T23:58:03.389Z,64.44
